Airfield :
LOGIN :

Register | Disclaimer

   EN    FR    IT 

 










Legend :    VFR   Marginal VFR   IFR   Intensive IFR   Very Intensive IFR
Visi :
Ceiling :
>= 8 km
>= 3000ft
5 to 8 km
1000 to 3000 ft
1500m to 5 km
500 to 1000 ft
800 to 1500m
200 to 500 ft
< 800m
< 200 ft
Symbols :   Thunderstorms  Fog  Heavy snow  Heavy precipitations  Wind > 20 kt
SIGMETs :     Misc.  Thunderstorms  Icing  Turbulence  Mountain Waves  Volcanic Ashes







- Airport Elevation : 33 ft
- IATA code : MHZ


EGUN - RAF Mildenhall

CURRENT METAR :
  • 190706Z AUTO 14005KT 5000 BR OVC003 15/15 A2972 RMK AO2 VIS 3200 RWY29 SLP067 $

EXPIRED METARs :
  • 190635Z AUTO 14006KT 4000 BR OVC003 14/14 A2972 RMK AO2 VIS 4000V5000 SLP067 $
  • 190630Z AUTO 14004KT 4400 BR OVC004 14/14 A2972 RMK AO2 VIS 4400V6000 OVC V BKN SLP067 $
  • 190615Z AUTO 12005KT 5000 BR BKN004 OVC100 14/14 A2971 RMK AO2 CIG 004V100 BKN V SCT SLP064 $
  • 190605Z AUTO 13005KT 5000 BR SCT004 BKN100 14/14 A2972 RMK AO2 SLP067 $
  • 190600Z AUTO 13006KT 4000 BR FEW004 SCT100 14/14 A2972 RMK AO2 SLP067 $
  • 190551Z AUTO 12005KT 4400 BR FEW100 14/14 A2972 RMK AO2 RAB40E51 SLP067 $
  • 190540Z AUTO 13004KT 5000 -RA BR FEW100 14/14 A2973 RMK AO2 RAB40 SLP071 $
  • 190516Z AUTO 14004KT 6000 BR SCT004 14/14 A2973 RMK AO2 SLP071 $
  • 190456Z AUTO 17003KT 8000 BR BKN005 BKN022 14/14 A2974 RMK AO2 CIG 005V022 BKN005 V SCT SLP074 T01430143 $
  • 190441Z AUTO 16004KT 8000 BR BKN006 OVC022 14/14 A2974 RMK AO2 CIG 006V022 BKN V SCT SLP074 $
  • 190436Z AUTO 17004KT 8000 BR SCT006 OVC022 14/14 A2974 RMK AO2 CIG 006V022 CIG 006 RWY29 SLP074 $

TAF AMD TAF EGUN
Valid from the 19 at 06:00 until the 20 at 10:00 UTC


190652Z 1906/2010 VRB06KT 4000 BR OVC003 610809 611701 QNH2970INS
TEMPO 1906/1911 5000 BR BKN007
BECMG 1910/1911 15012KT 8000 -RA BKN010 OVC050 620809 621701 QNH2965INS
BECMG 1914/1915 19015G25KT 8000 -SHRA BKN030 620809 621701 QNH2940INS
BECMG 2006/2007 25010G15KT 9999 NSW BKN040 620809 621701 QNH2948INS TX16/1912Z TN13/1906Z
No reported NOTAMs for that airfield.



MET'MAP, your aeronautical weather chart ! - Copyright ORBIFLY December 2007 - Disclaimer

ORBIFLY MET'MAP TEAM :

Programming & Development : Alexandra Zaïnal
Concept & Development : Baudouin d'Aumeries
Co-Development & Prog : Marc-Olivier Méhu
Technical & hardware support : Manuel Goepfert

Contact : metmap@orbifly.com




SOURCES & CREDITS :

   NOAA